createdAt,value
2019-04-11T00:00:57.690Z,0.00
2019-04-11T00:01:58.453Z,0.00
2019-04-11T00:02:57.520Z,0.00
2019-04-11T00:03:57.690Z,0.00
2019-04-11T00:04:58.534Z,0.00
2019-04-11T00:05:57.527Z,0.00
2019-04-11T00:06:58.120Z,0.00
2019-04-11T00:07:59.668Z,0.00
2019-04-11T00:08:58.582Z,0.00
2019-04-11T00:09:57.499Z,0.00
2019-04-11T00:10:57.614Z,0.00
2019-04-11T00:11:57.877Z,0.00
2019-04-11T00:12:57.400Z,0.00
2019-04-11T00:13:57.797Z,0.00
2019-04-11T00:14:57.380Z,0.00
2019-04-11T00:15:57.415Z,0.00
2019-04-11T00:16:57.439Z,0.00
2019-04-11T00:17:58.509Z,0.00
2019-04-11T00:18:57.358Z,0.00
2019-04-11T00:19:57.911Z,0.00
2019-04-11T00:20:58.263Z,0.00
2019-04-11T00:21:57.366Z,0.00
2019-04-11T00:22:57.607Z,0.00
2019-04-11T00:23:57.292Z,0.00
2019-04-11T00:24:57.328Z,0.00
2019-04-11T00:25:58.041Z,0.00
2019-04-11T00:26:57.272Z,0.00
2019-04-11T00:27:57.401Z,0.00
2019-04-11T00:28:58.252Z,0.00
2019-04-11T00:29:57.226Z,0.00
2019-04-11T00:30:57.236Z,0.00
2019-04-11T00:31:57.248Z,0.00
2019-04-11T00:32:58.045Z,0.00
2019-04-11T00:33:58.317Z,0.00
2019-04-11T00:34:57.461Z,0.00
2019-04-11T00:35:57.799Z,0.00
2019-04-11T00:36:57.144Z,0.00
2019-04-11T00:37:57.204Z,0.00
2019-04-11T00:38:57.353Z,0.00
2019-04-11T00:39:57.123Z,0.00
2019-04-11T00:40:57.567Z,0.00
2019-04-11T00:41:57.153Z,0.00
2019-04-11T00:42:57.088Z,0.00
2019-04-11T00:43:57.085Z,0.00
2019-04-11T00:44:57.167Z,0.00
2019-04-11T00:45:58.097Z,0.00
2019-04-11T00:46:57.070Z,0.00
2019-04-11T00:47:57.530Z,0.00
2019-04-11T00:48:57.715Z,0.00
2019-04-11T00:49:57.018Z,0.00
2019-04-11T00:50:56.994Z,0.00
2019-04-11T00:51:58.230Z,0.00
2019-04-11T00:52:57.989Z,0.00
2019-04-11T00:53:56.980Z,0.00
2019-04-11T00:54:57.397Z,0.00
2019-04-11T00:55:56.981Z,0.00
2019-04-11T00:56:57.003Z,0.00
2019-04-11T00:57:57.143Z,0.00
2019-04-11T00:58:58.181Z,0.00
2019-04-11T00:59:56.924Z,0.00
2019-04-11T01:00:57.552Z,0.00
2019-04-11T01:01:56.949Z,0.00
2019-04-11T01:02:57.865Z,0.00
2019-04-11T01:03:56.858Z,0.00
2019-04-11T01:04:57.079Z,0.00
2019-04-11T01:05:56.863Z,0.00
2019-04-11T01:06:56.875Z,0.00
2019-04-11T01:07:57.753Z,0.00
2019-04-11T01:08:56.863Z,0.00
2019-04-11T01:09:56.886Z,0.00
2019-04-11T01:10:57.401Z,0.00
2019-04-11T01:11:56.802Z,0.00
2019-04-11T01:12:56.827Z,0.00
2019-04-11T01:13:57.354Z,0.00
2019-04-11T01:14:57.359Z,0.00
2019-04-11T01:15:56.771Z,0.00
2019-04-11T01:16:56.919Z,0.00
2019-04-11T01:17:57.925Z,0.00
2019-04-11T01:18:56.724Z,0.00
2019-04-11T01:19:57.371Z,0.00
2019-04-11T01:20:56.722Z,0.00
2019-04-11T01:21:57.933Z,0.00
2019-04-11T01:22:56.672Z,0.00
2019-04-11T01:23:57.520Z,0.00
2019-04-11T01:24:57.785Z,0.00
2019-04-11T01:25:57.000Z,0.00
2019-04-11T01:26:57.395Z,0.00
2019-04-11T01:27:56.641Z,0.00
2019-04-11T01:28:56.612Z,0.00
2019-04-11T01:29:57.792Z,0.00
2019-04-11T01:30:57.613Z,0.00
2019-04-11T01:31:56.619Z,0.00
2019-04-11T01:32:56.960Z,0.00
2019-04-11T01:33:56.580Z,0.00
2019-04-11T01:34:57.158Z,0.00
2019-04-11T01:35:57.422Z,0.00
2019-04-11T01:36:57.545Z,0.00
2019-04-11T01:37:57.751Z,0.00
2019-04-11T01:38:56.929Z,0.00
2019-04-11T01:39:57.188Z,0.00
2019-04-11T01:40:56.520Z,0.00
2019-04-11T01:41:56.477Z,0.00
2019-04-11T01:42:57.592Z,0.00
2019-04-11T01:44:03.333Z,0.00
2019-04-11T01:44:57.459Z,0.00
2019-04-11T01:45:56.432Z,0.00
2019-04-11T01:46:56.430Z,0.00
2019-04-11T01:47:57.384Z,0.00
2019-04-11T01:48:57.615Z,0.00
2019-04-11T01:49:56.636Z,0.00
2019-04-11T01:50:57.068Z,0.00
2019-04-11T01:51:56.367Z,0.00
2019-04-11T01:52:56.441Z,0.00
2019-04-11T01:53:57.421Z,0.00
2019-04-11T01:54:56.468Z,0.00
2019-04-11T01:55:56.900Z,0.00
2019-04-11T01:56:58.273Z,0.00
2019-04-11T01:57:58.334Z,0.00
2019-04-11T01:58:57.193Z,0.00
2019-04-11T01:59:56.552Z,0.00
2019-04-11T02:00:56.781Z,0.00
2019-04-11T02:01:57.194Z,0.00
2019-04-11T02:02:57.006Z,0.00
2019-04-11T02:03:57.263Z,0.00
2019-04-11T02:04:56.460Z,0.00
2019-04-11T02:05:59.134Z,0.00
2019-04-11T02:06:56.316Z,0.00
2019-04-11T02:07:56.199Z,0.00
2019-04-11T02:08:56.244Z,0.00
2019-04-11T02:09:56.761Z,0.00
2019-04-11T02:10:57.075Z,0.00
2019-04-11T02:11:56.200Z,0.00
2019-04-11T02:12:56.329Z,0.00
2019-04-11T02:14:09.874Z,0.00
2019-04-11T02:14:59.690Z,0.00
2019-04-11T02:15:58.279Z,0.00
2019-04-11T02:16:57.087Z,0.00
2019-04-11T02:17:57.234Z,0.00
2019-04-11T02:18:57.318Z,0.00
2019-04-11T02:19:56.545Z,0.00
2019-04-11T02:20:56.046Z,0.00
2019-04-11T02:21:56.096Z,0.00
2019-04-11T02:22:56.925Z,0.00
2019-04-11T02:23:56.327Z,0.00
2019-04-11T02:24:56.333Z,0.00
2019-04-11T02:25:56.584Z,0.00
2019-04-11T02:26:56.617Z,0.00
2019-04-11T02:27:56.110Z,0.00
2019-04-11T02:28:57.119Z,0.00
2019-04-11T02:29:55.998Z,0.00
2019-04-11T02:30:56.556Z,0.00
2019-04-11T02:31:57.416Z,0.00
2019-04-11T02:32:56.142Z,0.00
2019-04-11T02:33:57.372Z,0.00
2019-04-11T02:34:58.850Z,0.00
2019-04-11T02:35:56.657Z,0.00
2019-04-11T02:36:57.979Z,0.00
2019-04-11T02:37:57.010Z,0.00
2019-04-11T02:38:59.059Z,0.00
2019-04-11T02:39:57.928Z,0.00
2019-04-11T02:40:57.372Z,0.00
2019-04-11T02:41:56.888Z,0.00
2019-04-11T02:42:57.140Z,0.00
2019-04-11T02:43:57.489Z,0.00
2019-04-11T02:45:09.158Z,0.00
2019-04-11T02:46:09.851Z,0.00
2019-04-11T02:47:07.463Z,0.00
2019-04-11T02:47:57.139Z,0.00
2019-04-11T02:48:56.781Z,0.00
2019-04-11T02:49:57.155Z,0.00
2019-04-11T02:50:56.530Z,0.00
2019-04-11T02:51:56.072Z,0.00
2019-04-11T02:52:56.725Z,0.00
2019-04-11T02:53:57.348Z,0.00
2019-04-11T02:54:56.852Z,0.00
2019-04-11T02:55:56.608Z,0.00
2019-04-11T02:56:57.491Z,0.00
2019-04-11T02:57:56.880Z,0.00
2019-04-11T02:58:56.547Z,0.00
2019-04-11T02:59:56.347Z,0.00
2019-04-11T03:00:59.074Z,0.00
2019-04-11T03:01:58.057Z,0.00
2019-04-11T03:02:56.929Z,0.00
2019-04-11T03:03:56.998Z,0.00
2019-04-11T03:04:56.618Z,0.00
2019-04-11T03:05:57.599Z,0.00
2019-04-11T03:06:57.285Z,0.00
2019-04-11T03:07:56.400Z,0.00
2019-04-11T03:08:57.311Z,0.00
2019-04-11T03:09:56.480Z,0.00
2019-04-11T03:10:56.148Z,0.00
2019-04-11T03:11:56.787Z,0.00
2019-04-11T03:12:56.844Z,0.00
2019-04-11T03:13:55.521Z,0.00
2019-04-11T03:15:12.991Z,0.00
2019-04-11T03:16:08.167Z,0.00
2019-04-11T03:17:06.229Z,0.00
2019-04-11T03:18:01.854Z,0.00
2019-04-11T03:19:14.465Z,0.00
2019-04-11T03:20:09.386Z,0.00
2019-04-11T03:21:01.584Z,0.00
2019-04-11T03:21:57.227Z,0.00
2019-04-11T03:23:00.083Z,0.00
2019-04-11T03:23:56.459Z,0.00
2019-04-11T03:24:57.605Z,0.00
2019-04-11T03:25:56.665Z,0.00
2019-04-11T03:26:58.038Z,0.00
2019-04-11T03:27:57.007Z,0.00
2019-04-11T03:28:57.421Z,0.00
2019-04-11T03:29:55.994Z,0.00
2019-04-11T03:31:26.715Z,0.00
2019-04-11T03:32:41.965Z,0.00
2019-04-11T03:35:51.998Z,0.00
2019-04-11T03:38:21.486Z,0.00
2019-04-11T03:39:15.406Z,0.00
2019-04-11T03:40:16.975Z,0.00
2019-04-11T03:41:14.209Z,0.00
2019-04-11T03:42:15.996Z,0.00
2019-04-11T03:43:08.928Z,0.00
2019-04-11T03:44:04.220Z,0.00
2019-04-11T03:45:18.849Z,0.00
2019-04-11T03:46:16.271Z,0.00
2019-04-11T03:47:14.760Z,0.00
2019-04-11T03:48:05.985Z,0.00
2019-04-11T03:49:06.078Z,0.00
2019-04-11T03:50:05.048Z,0.00
2019-04-11T03:50:57.313Z,0.00
2019-04-11T03:51:55.647Z,0.00
2019-04-11T03:52:56.284Z,0.00
2019-04-11T03:53:56.668Z,0.00
2019-04-11T03:54:56.267Z,0.00
2019-04-11T03:55:56.103Z,0.00
2019-04-11T03:56:55.069Z,0.00
2019-04-11T03:57:56.717Z,0.00
2019-04-11T03:58:57.606Z,0.00
2019-04-11T03:59:56.468Z,0.00
2019-04-11T04:00:59.347Z,0.00
2019-04-11T04:01:57.464Z,0.00
2019-04-11T04:02:55.880Z,0.00
2019-04-11T04:03:55.620Z,0.00
2019-04-11T04:04:55.048Z,0.00
2019-04-11T04:05:55.858Z,0.00
2019-04-11T04:06:55.310Z,0.00
2019-04-11T04:07:55.358Z,0.00
2019-04-11T04:08:55.605Z,0.00
2019-04-11T04:09:54.930Z,0.00
2019-04-11T04:10:56.316Z,0.00
2019-04-11T04:11:56.681Z,0.00
2019-04-11T04:12:55.837Z,0.00
2019-04-11T04:13:56.217Z,5.62
2019-04-11T04:14:54.872Z,5.62
2019-04-11T04:16:06.373Z,5.62
2019-04-11T04:16:59.318Z,5.62
2019-04-11T04:17:57.348Z,5.62
2019-04-11T04:18:56.303Z,5.62
2019-04-11T04:19:56.390Z,5.62
2019-04-11T04:20:54.887Z,11.25
2019-04-11T04:21:55.357Z,11.25
2019-04-11T04:22:56.447Z,11.25
2019-04-11T04:23:57.740Z,11.25
2019-04-11T04:24:55.867Z,11.25
2019-04-11T04:26:00.865Z,16.88
2019-04-11T04:26:56.796Z,16.88
2019-04-11T04:27:56.304Z,16.88
2019-04-11T04:28:57.661Z,16.88
2019-04-11T04:29:57.759Z,22.50
2019-04-11T04:30:54.940Z,22.50
2019-04-11T04:31:55.095Z,22.50
2019-04-11T04:33:02.841Z,28.12
2019-04-11T04:33:57.558Z,28.12
2019-04-11T04:34:58.408Z,28.12
2019-04-11T04:36:00.159Z,33.75
2019-04-11T04:36:55.708Z,33.75
2019-04-11T04:37:56.979Z,39.38
2019-04-11T04:38:56.925Z,39.38
2019-04-11T04:40:13.231Z,39.38
2019-04-11T04:41:12.808Z,45.00
2019-04-11T04:42:04.187Z,45.00
2019-04-11T04:42:58.272Z,45.00
2019-04-11T04:43:55.346Z,50.62
2019-04-11T04:44:55.981Z,50.62
2019-04-11T04:46:11.533Z,56.25
2019-04-11T04:47:10.613Z,56.25
2019-04-11T04:48:02.649Z,61.88
2019-04-11T04:48:56.006Z,61.88
2019-04-11T04:49:54.802Z,61.88
2019-04-11T04:50:56.949Z,67.50
2019-04-11T04:51:55.677Z,67.50
2019-04-11T04:52:55.889Z,67.50
2019-04-11T04:53:55.698Z,67.50
2019-04-11T04:54:55.123Z,73.12
2019-04-11T04:55:54.528Z,73.12
2019-04-11T04:56:54.715Z,73.12
2019-04-11T04:57:55.487Z,73.12
2019-04-11T04:58:58.522Z,78.75
2019-04-11T04:59:57.684Z,78.75
2019-04-11T05:00:56.675Z,84.38
2019-04-11T05:01:55.874Z,90.00
2019-04-11T05:02:55.031Z,84.38
2019-04-11T05:03:58.130Z,90.00
2019-04-11T05:04:56.574Z,90.00
2019-04-11T05:05:58.343Z,90.00
2019-04-11T05:06:55.194Z,95.62
2019-04-11T05:07:56.145Z,95.62
2019-04-11T05:08:57.929Z,95.62
2019-04-11T05:09:56.201Z,101.25
2019-04-11T05:10:59.743Z,101.25
2019-04-11T05:11:55.168Z,106.88
2019-04-11T05:12:56.993Z,106.88
2019-04-11T05:13:56.448Z,106.88
2019-04-11T05:14:55.947Z,106.88
2019-04-11T05:16:06.888Z,112.50
2019-04-11T05:16:55.328Z,112.50
2019-04-11T05:17:54.241Z,112.50
2019-04-11T05:18:54.716Z,112.50
2019-04-11T05:19:54.440Z,118.12
2019-04-11T05:20:54.769Z,123.75
2019-04-11T05:21:55.218Z,123.75
2019-04-11T05:22:55.910Z,123.75
2019-04-11T05:23:55.588Z,129.38
2019-04-11T05:24:55.641Z,140.62
2019-04-11T05:25:55.044Z,140.62
2019-04-11T05:26:54.195Z,146.25
2019-04-11T05:27:54.190Z,151.88
2019-04-11T05:28:55.195Z,151.88
2019-04-11T05:29:54.801Z,151.88
2019-04-11T05:30:55.237Z,157.50
2019-04-11T05:31:54.690Z,151.88
2019-04-11T05:32:54.081Z,157.50
2019-04-11T05:33:54.076Z,157.50
2019-04-11T05:34:54.156Z,157.50
2019-04-11T05:35:54.227Z,157.50
2019-04-11T05:36:54.059Z,157.50
2019-04-11T05:37:54.038Z,157.50
2019-04-11T05:38:54.757Z,163.12
2019-04-11T05:39:54.020Z,168.75
2019-04-11T05:40:54.562Z,174.38
2019-04-11T05:41:54.808Z,180.00
2019-04-11T05:42:54.657Z,180.00
2019-04-11T05:43:54.004Z,180.00
2019-04-11T05:44:54.739Z,185.62
2019-04-11T05:45:55.220Z,185.62
2019-04-11T05:46:57.594Z,185.62
2019-04-11T05:47:56.564Z,191.25
2019-04-11T05:48:57.824Z,191.25
2019-04-11T05:49:54.925Z,191.25
2019-04-11T05:50:54.090Z,191.25
2019-04-11T05:51:56.790Z,191.25
2019-04-11T05:52:54.601Z,191.25
2019-04-11T05:53:55.858Z,191.25
2019-04-11T05:54:54.335Z,185.62
2019-04-11T05:55:53.817Z,185.62
2019-04-11T05:56:56.502Z,191.25
2019-04-11T05:57:54.412Z,191.25
2019-04-11T05:58:57.807Z,191.25
2019-04-11T05:59:55.099Z,191.25
2019-04-11T06:00:55.828Z,191.25
2019-04-11T06:01:54.949Z,191.25
2019-04-11T06:02:53.738Z,196.88
2019-04-11T06:03:53.772Z,196.88
2019-04-11T06:04:56.086Z,196.88
2019-04-11T06:05:55.124Z,202.50
2019-04-11T06:06:56.808Z,202.50
2019-04-11T06:07:57.275Z,202.50
2019-04-11T06:08:54.204Z,202.50
2019-04-11T06:09:54.618Z,208.12
2019-04-11T06:10:54.688Z,208.12
2019-04-11T06:11:56.107Z,208.12
2019-04-11T06:12:54.649Z,213.75
2019-04-11T06:13:53.659Z,213.75
2019-04-11T06:14:53.663Z,219.38
2019-04-11T06:15:53.666Z,219.38
2019-04-11T06:16:55.750Z,219.38
2019-04-11T06:17:54.512Z,225.00
2019-04-11T06:18:54.309Z,225.00
2019-04-11T06:19:53.648Z,225.00
2019-04-11T06:20:53.660Z,225.00
2019-04-11T06:21:53.575Z,230.62
2019-04-11T06:22:54.081Z,236.25
2019-04-11T06:23:53.869Z,236.25
2019-04-11T06:24:53.591Z,236.25
2019-04-11T06:25:53.595Z,236.25
2019-04-11T06:26:54.654Z,241.88
2019-04-11T06:27:53.712Z,241.88
2019-04-11T06:28:55.460Z,241.88
2019-04-11T06:29:53.586Z,241.88
2019-04-11T06:30:54.715Z,247.50
2019-04-11T06:31:53.513Z,247.50
2019-04-11T06:32:54.344Z,253.12
2019-04-11T06:33:53.420Z,253.12
2019-04-11T06:34:53.456Z,253.12
2019-04-11T06:35:54.490Z,258.75
2019-04-11T06:36:53.446Z,258.75
2019-04-11T06:37:54.248Z,264.38
2019-04-11T06:38:54.592Z,264.38
2019-04-11T06:39:53.940Z,264.38
2019-04-11T06:40:54.409Z,270.00
2019-04-11T06:41:53.398Z,270.00
2019-04-11T06:42:53.880Z,270.00
2019-04-11T06:43:54.624Z,275.62
2019-04-11T06:44:54.276Z,365.62
2019-04-11T06:45:54.353Z,511.88
2019-04-11T06:46:57.325Z,500.62
2019-04-11T06:47:53.525Z,427.50
2019-04-11T06:48:53.930Z,438.75
2019-04-11T06:49:53.291Z,495.00
2019-04-11T06:50:54.229Z,511.88
2019-04-11T06:51:54.000Z,523.12
2019-04-11T06:52:53.306Z,534.38
2019-04-11T06:53:53.229Z,450.00
2019-04-11T06:54:53.956Z,348.75
2019-04-11T06:55:53.264Z,298.12
2019-04-11T06:56:53.845Z,292.50
2019-04-11T06:57:54.178Z,292.50
2019-04-11T06:58:54.134Z,292.50
2019-04-11T06:59:53.161Z,292.50
2019-04-11T07:00:53.613Z,292.50
2019-04-11T07:01:53.152Z,292.50
2019-04-11T07:02:53.141Z,292.50
2019-04-11T07:03:53.286Z,292.50
2019-04-11T07:04:53.867Z,292.50
2019-04-11T07:05:53.200Z,292.50
2019-04-11T07:06:53.730Z,292.50
2019-04-11T07:07:53.662Z,292.50
2019-04-11T07:08:53.126Z,298.12
2019-04-11T07:09:53.458Z,298.12
2019-04-11T07:10:53.159Z,298.12
2019-04-11T07:11:53.060Z,298.12
2019-04-11T07:12:55.471Z,303.75
2019-04-11T07:13:53.327Z,303.75
2019-04-11T07:14:53.034Z,303.75
2019-04-11T07:15:52.973Z,309.38
2019-04-11T07:17:03.252Z,309.38
2019-04-11T07:17:54.677Z,315.00
2019-04-11T07:18:52.974Z,315.00
2019-04-11T07:19:53.667Z,315.00
2019-04-11T07:20:54.105Z,320.62
2019-04-11T07:21:52.920Z,315.00
2019-04-11T07:22:53.134Z,315.00
2019-04-11T07:23:53.380Z,320.62
2019-04-11T07:24:53.074Z,326.25
2019-04-11T07:25:53.916Z,320.62
2019-04-11T07:26:52.874Z,326.25
2019-04-11T07:27:52.843Z,320.62
2019-04-11T07:28:52.845Z,320.62
2019-04-11T07:29:52.830Z,326.25
2019-04-11T07:30:53.849Z,331.88
2019-04-11T07:31:53.118Z,326.25
2019-04-11T07:32:53.255Z,326.25
2019-04-11T07:33:53.877Z,331.88
2019-04-11T07:34:53.118Z,331.88
2019-04-11T07:35:52.983Z,331.88
2019-04-11T07:36:53.561Z,331.88
2019-04-11T07:37:53.322Z,331.88
2019-04-11T07:38:52.793Z,337.50
2019-04-11T07:39:52.767Z,337.50
2019-04-11T07:40:54.521Z,303.75
2019-04-11T07:41:52.730Z,343.12
2019-04-11T07:42:53.143Z,292.50
2019-04-11T07:43:52.677Z,360.00
2019-04-11T07:44:52.666Z,354.38
2019-04-11T07:45:52.670Z,337.50
2019-04-11T07:46:53.628Z,157.50
2019-04-11T07:47:52.702Z,354.38
2019-04-11T07:48:52.692Z,360.00
2019-04-11T07:49:55.204Z,371.25
2019-04-11T07:50:55.240Z,360.00
2019-04-11T07:51:52.824Z,326.25
2019-04-11T07:52:53.761Z,365.62
2019-04-11T07:53:52.593Z,360.00
2019-04-11T07:54:53.663Z,354.38
2019-04-11T07:55:53.154Z,354.38
2019-04-11T07:56:52.835Z,354.38
2019-04-11T07:57:52.567Z,360.00
2019-04-11T07:58:52.552Z,365.62
2019-04-11T07:59:53.340Z,146.25
2019-04-11T08:00:54.319Z,146.25
2019-04-11T08:01:52.922Z,382.50
2019-04-11T08:02:53.200Z,376.88
2019-04-11T08:03:53.552Z,382.50
2019-04-11T08:04:53.315Z,382.50
2019-04-11T08:05:52.505Z,388.12
2019-04-11T08:06:52.437Z,382.50
2019-04-11T08:07:52.427Z,371.25
2019-04-11T08:08:52.524Z,376.88
2019-04-11T08:09:52.791Z,376.88
2019-04-11T08:10:52.647Z,399.38
2019-04-11T08:11:52.413Z,433.12
2019-04-11T08:12:52.412Z,461.25
2019-04-11T08:13:54.601Z,416.25
2019-04-11T08:14:53.035Z,500.62
2019-04-11T08:15:52.347Z,495.00
2019-04-11T08:16:53.275Z,500.62
2019-04-11T08:17:52.358Z,511.88
2019-04-11T08:18:52.914Z,506.25
2019-04-11T08:19:53.260Z,551.25
2019-04-11T08:20:53.269Z,579.38
2019-04-11T08:21:52.571Z,641.25
2019-04-11T08:22:52.260Z,658.12
2019-04-11T08:23:52.264Z,669.38
2019-04-11T08:24:53.170Z,658.12
2019-04-11T08:25:52.271Z,652.50
2019-04-11T08:26:52.574Z,652.50
2019-04-11T08:27:59.991Z,658.12
2019-04-11T08:29:01.290Z,675.00
2019-04-11T08:29:53.214Z,691.88
2019-04-11T08:30:52.174Z,680.62
2019-04-11T08:31:53.847Z,601.88
2019-04-11T08:32:52.212Z,450.00
2019-04-11T08:33:53.110Z,579.38
2019-04-11T08:34:53.419Z,568.12
2019-04-11T08:35:53.980Z,551.25
2019-04-11T08:36:52.095Z,568.12
2019-04-11T08:37:52.420Z,551.25
2019-04-11T08:38:53.003Z,331.88
2019-04-11T08:39:53.331Z,315.00
2019-04-11T08:40:53.258Z,315.00
2019-04-11T08:41:52.182Z,320.62
2019-04-11T08:42:52.808Z,315.00
2019-04-11T08:43:53.122Z,320.62
2019-04-11T08:44:52.238Z,331.88
2019-04-11T08:45:52.091Z,348.75
2019-04-11T08:46:52.053Z,365.62
2019-04-11T08:47:55.643Z,511.88
2019-04-11T08:48:53.055Z,500.62
2019-04-11T08:49:52.262Z,483.75
2019-04-11T08:50:52.536Z,495.00
2019-04-11T08:51:51.955Z,495.00
2019-04-11T08:52:52.110Z,506.25
2019-04-11T08:53:53.079Z,517.50
2019-04-11T08:54:52.035Z,528.75
2019-04-11T08:55:55.766Z,517.50
2019-04-11T08:56:53.584Z,506.25
2019-04-11T08:57:52.032Z,495.00
2019-04-11T08:58:53.032Z,495.00
2019-04-11T08:59:51.912Z,500.62
2019-04-11T09:00:53.074Z,500.62
2019-04-11T09:01:51.924Z,495.00
2019-04-11T09:02:51.861Z,489.38
2019-04-11T09:03:59.803Z,472.50
2019-04-11T09:05:03.195Z,472.50
2019-04-11T09:05:53.338Z,478.12
2019-04-11T09:06:52.593Z,489.38
2019-04-11T09:07:52.067Z,506.25
2019-04-11T09:08:51.981Z,511.88
2019-04-11T09:09:51.824Z,517.50
2019-04-11T09:10:52.580Z,517.50
2019-04-11T09:11:51.938Z,511.88
2019-04-11T09:12:51.727Z,500.62
2019-04-11T09:13:51.727Z,489.38
2019-04-11T09:14:52.652Z,495.00
2019-04-11T09:15:52.897Z,495.00
2019-04-11T09:16:52.098Z,483.75
2019-04-11T09:17:58.693Z,461.25
2019-04-11T09:18:52.658Z,433.12
2019-04-11T09:19:51.639Z,438.75
2019-04-11T09:20:51.817Z,455.62
2019-04-11T09:21:52.790Z,461.25
2019-04-11T09:22:51.635Z,461.25
2019-04-11T09:23:52.232Z,455.62
2019-04-11T09:24:51.645Z,450.00
2019-04-11T09:25:53.312Z,444.38
2019-04-11T09:26:51.988Z,438.75
2019-04-11T09:27:51.590Z,438.75
2019-04-11T09:28:51.685Z,444.38
2019-04-11T09:29:52.486Z,455.62
2019-04-11T09:30:52.760Z,466.88
2019-04-11T09:31:51.734Z,478.12
2019-04-11T09:32:52.740Z,489.38
2019-04-11T09:33:51.523Z,506.25
2019-04-11T09:34:52.218Z,523.12
2019-04-11T09:35:51.510Z,523.12
2019-04-11T09:36:51.540Z,517.50
2019-04-11T09:37:51.792Z,517.50
2019-04-11T09:38:52.766Z,523.12
2019-04-11T09:39:51.467Z,511.88
2019-04-11T09:40:52.132Z,495.00
2019-04-11T09:41:52.431Z,483.75
2019-04-11T09:42:51.422Z,478.12
2019-04-11T09:43:52.620Z,478.12
2019-04-11T09:44:51.422Z,478.12
2019-04-11T09:45:52.503Z,483.75
2019-04-11T09:46:51.584Z,489.38
2019-04-11T09:47:51.941Z,506.25
2019-04-11T09:48:51.364Z,534.38
2019-04-11T09:49:51.602Z,556.88
2019-04-11T09:50:51.329Z,579.38
2019-04-11T09:51:52.010Z,585.00
2019-04-11T09:52:51.621Z,585.00
2019-04-11T09:53:51.336Z,585.00
2019-04-11T09:54:52.538Z,579.38
2019-04-11T09:55:51.281Z,585.00
2019-04-11T09:56:51.782Z,607.50
2019-04-11T09:57:52.466Z,630.00
2019-04-11T09:58:51.890Z,658.12
2019-04-11T09:59:51.836Z,675.00
2019-04-11T10:00:51.255Z,669.38
2019-04-11T10:01:51.743Z,658.12
2019-04-11T10:02:52.591Z,652.50
2019-04-11T10:03:51.393Z,641.25
2019-04-11T10:04:52.263Z,635.62
2019-04-11T10:05:51.641Z,630.00
2019-04-11T10:06:51.178Z,630.00
2019-04-11T10:07:52.306Z,641.25
2019-04-11T10:08:51.291Z,646.88
2019-04-11T10:09:52.418Z,641.25
2019-04-11T10:10:51.219Z,635.62
2019-04-11T10:11:52.350Z,618.75
2019-04-11T10:12:52.055Z,607.50
2019-04-11T10:13:51.281Z,596.25
2019-04-11T10:14:51.131Z,596.25
2019-04-11T10:15:51.537Z,585.00
2019-04-11T10:16:51.057Z,568.12
2019-04-11T10:17:51.128Z,551.25
2019-04-11T10:18:51.528Z,556.88
2019-04-11T10:19:51.993Z,556.88
2019-04-11T10:20:51.135Z,562.50
2019-04-11T10:21:51.026Z,579.38
2019-04-11T10:22:51.992Z,590.62
2019-04-11T10:23:51.342Z,596.25
2019-04-11T10:24:50.953Z,618.75
2019-04-11T10:25:51.748Z,618.75
2019-04-11T10:26:52.019Z,624.38
2019-04-11T10:27:51.066Z,624.38
2019-04-11T10:28:51.673Z,630.00
2019-04-11T10:29:50.926Z,630.00
2019-04-11T10:30:50.922Z,635.62
2019-04-11T10:31:50.943Z,641.25
2019-04-11T10:32:51.804Z,669.38
2019-04-11T10:33:50.999Z,697.50
2019-04-11T10:34:52.116Z,714.38
2019-04-11T10:35:50.870Z,742.50
2019-04-11T10:36:51.607Z,765.00
2019-04-11T10:37:51.899Z,781.88
2019-04-11T10:38:50.957Z,781.88
2019-04-11T10:39:51.337Z,787.50
2019-04-11T10:40:50.795Z,798.75
2019-04-11T10:41:50.797Z,815.62
2019-04-11T10:42:51.878Z,821.25
2019-04-11T10:43:51.647Z,810.00
2019-04-11T10:44:50.943Z,781.88
2019-04-11T10:45:51.062Z,770.62
2019-04-11T10:46:51.504Z,770.62
2019-04-11T10:47:51.273Z,759.38
2019-04-11T10:48:50.733Z,742.50
2019-04-11T10:49:50.685Z,720.00
2019-04-11T10:50:50.736Z,708.75
2019-04-11T10:51:50.832Z,691.88
2019-04-11T10:52:50.932Z,686.25
2019-04-11T10:53:51.242Z,686.25
2019-04-11T10:54:51.154Z,675.00
2019-04-11T10:55:51.740Z,658.12
2019-04-11T10:56:51.612Z,641.25
2019-04-11T10:57:51.847Z,624.38
2019-04-11T10:58:51.247Z,613.12
2019-04-11T10:59:51.176Z,607.50
2019-04-11T11:00:51.501Z,607.50
2019-04-11T11:01:50.702Z,596.25
2019-04-11T11:02:50.596Z,573.75
2019-04-11T11:03:51.432Z,556.88
2019-04-11T11:04:50.590Z,551.25
2019-04-11T11:05:51.370Z,556.88
2019-04-11T11:06:51.716Z,579.38
2019-04-11T11:07:51.029Z,613.12
2019-04-11T11:08:50.615Z,641.25
2019-04-11T11:09:50.536Z,658.12
2019-04-11T11:10:50.507Z,680.62
2019-04-11T11:11:50.517Z,686.25
2019-04-11T11:12:51.640Z,686.25
2019-04-11T11:13:50.442Z,680.62
2019-04-11T11:14:51.951Z,680.62
2019-04-11T11:15:51.625Z,691.88
2019-04-11T11:16:50.733Z,708.75
2019-04-11T11:18:20.323Z,725.62
2019-04-11T11:19:20.639Z,736.88
2019-04-11T11:20:07.156Z,725.62
2019-04-11T11:20:55.112Z,663.75
2019-04-11T11:21:51.416Z,613.12
2019-04-11T11:22:51.690Z,573.75
2019-04-11T11:23:50.761Z,545.62
2019-04-11T11:24:50.443Z,511.88
2019-04-11T11:25:51.718Z,466.88
2019-04-11T11:26:53.732Z,427.50
2019-04-11T11:27:52.359Z,405.00
2019-04-11T11:28:50.920Z,393.75
2019-04-11T11:29:51.537Z,388.12
2019-04-11T11:30:50.291Z,405.00
2019-04-11T11:31:50.269Z,438.75
2019-04-11T11:32:50.230Z,483.75
2019-04-11T11:33:50.971Z,506.25
2019-04-11T11:34:52.936Z,506.25
2019-04-11T11:35:50.224Z,472.50
2019-04-11T11:36:51.969Z,421.88
2019-04-11T11:37:50.203Z,388.12
2019-04-11T11:38:50.276Z,365.62
2019-04-11T11:39:51.116Z,354.38
2019-04-11T11:40:50.179Z,348.75
2019-04-11T11:41:50.131Z,343.12
2019-04-11T11:42:50.567Z,343.12
2019-04-11T11:43:50.171Z,331.88
2019-04-11T11:44:50.114Z,326.25
2019-04-11T11:45:54.565Z,326.25
2019-04-11T11:46:52.160Z,326.25
2019-04-11T11:47:51.087Z,320.62
2019-04-11T11:48:52.966Z,315.00
2019-04-11T11:49:57.344Z,309.38
2019-04-11T11:50:51.499Z,303.75
2019-04-11T11:51:50.075Z,303.75
2019-04-11T11:52:51.014Z,303.75
2019-04-11T11:53:51.027Z,309.38
2019-04-11T11:54:50.040Z,320.62
2019-04-11T11:55:50.037Z,337.50
2019-04-11T11:56:50.788Z,360.00
2019-04-11T11:57:50.928Z,382.50
2019-04-11T11:58:56.340Z,410.62
2019-04-11T11:59:50.959Z,444.38
2019-04-11T12:00:53.520Z,483.75
2019-04-11T12:01:51.445Z,517.50
2019-04-11T12:02:51.875Z,562.50
2019-04-11T12:03:50.773Z,601.88
2019-04-11T12:04:49.968Z,635.62
2019-04-11T12:05:51.970Z,663.75
2019-04-11T12:06:53.236Z,714.38
2019-04-11T12:07:51.473Z,770.62
2019-04-11T12:08:51.324Z,815.62
2019-04-11T12:09:50.891Z,787.50
2019-04-11T12:10:49.834Z,646.88
2019-04-11T12:11:52.463Z,528.75
2019-04-11T12:12:49.874Z,450.00
2019-04-11T12:13:49.839Z,393.75
2019-04-11T12:14:49.777Z,360.00
2019-04-11T12:15:51.039Z,326.25
2019-04-11T12:16:54.980Z,303.75
2019-04-11T12:17:51.927Z,298.12
2019-04-11T12:18:51.855Z,292.50
2019-04-11T12:19:53.802Z,292.50
2019-04-11T12:20:51.389Z,298.12
2019-04-11T12:21:49.746Z,315.00
2019-04-11T12:22:52.060Z,354.38
2019-04-11T12:23:58.066Z,399.38
2019-04-11T12:24:50.687Z,433.12
2019-04-11T12:25:49.678Z,455.62
2019-04-11T12:26:49.645Z,472.50
2019-04-11T12:27:50.064Z,478.12
2019-04-11T12:28:50.004Z,478.12
2019-04-11T12:29:50.848Z,483.75
2019-04-11T12:30:50.381Z,483.75
2019-04-11T12:31:50.252Z,483.75
2019-04-11T12:32:49.709Z,478.12
2019-04-11T12:33:49.934Z,466.88
2019-04-11T12:34:49.586Z,450.00
2019-04-11T12:35:50.689Z,438.75
2019-04-11T12:36:50.929Z,438.75
2019-04-11T12:37:51.868Z,450.00
2019-04-11T12:38:49.534Z,438.75
2019-04-11T12:39:49.524Z,410.62
2019-04-11T12:40:49.559Z,405.00
2019-04-11T12:41:49.511Z,416.25
2019-04-11T12:42:49.532Z,427.50
2019-04-11T12:43:49.544Z,444.38
2019-04-11T12:44:49.451Z,450.00
2019-04-11T12:45:49.533Z,450.00
2019-04-11T12:46:49.448Z,455.62
2019-04-11T12:47:49.467Z,444.38
2019-04-11T12:48:49.453Z,427.50
2019-04-11T12:49:53.047Z,416.25
2019-04-11T12:50:49.408Z,410.62